createdAt,value
2022-09-12T00:00:13.765Z,20
2022-09-12T00:15:04.140Z,20
2022-09-12T00:30:06.782Z,20
2022-09-12T00:45:04.517Z,20.0
2022-09-12T01:00:05.027Z,20.1
2022-09-12T01:15:05.470Z,20.1
2022-09-12T01:30:06.668Z,20.1
2022-09-12T01:45:03.332Z,20.1
2022-09-12T02:00:05.269Z,20.1
2022-09-12T02:15:03.415Z,20.1
2022-09-12T02:30:06.187Z,20.1
2022-09-12T02:45:03.052Z,20.1
2022-09-12T03:00:04.734Z,20.1
2022-09-12T03:15:04.698Z,20.2
2022-09-12T03:30:05.431Z,20.2
2022-09-12T03:45:03.172Z,20.2
2022-09-12T04:00:07.311Z,20.2
2022-09-12T04:15:02.249Z,20.2
2022-09-12T04:30:06.727Z,20.2
2022-09-12T04:45:03.692Z,20.2
2022-09-12T05:00:07.166Z,20.3
2022-09-12T05:15:03.971Z,20.3
2022-09-12T05:30:08.193Z,20.4
2022-09-12T05:45:04.905Z,20.5
2022-09-12T06:00:06.725Z,20.6
2022-09-12T06:15:02.514Z,20.7
2022-09-12T06:30:07.702Z,20.8
2022-09-12T06:45:04.280Z,20.9
2022-09-12T07:00:08.980Z,21.0
2022-09-12T07:15:04.231Z,21.1
2022-09-12T07:30:06.867Z,21.2
2022-09-12T07:45:03.212Z,21.3
2022-09-12T08:00:10.605Z,21.4
2022-09-12T08:15:03.962Z,21.5
2022-09-12T08:30:06.354Z,21.6
2022-09-12T08:45:04.046Z,21.8
2022-09-12T09:00:06.627Z,21.8
2022-09-12T09:15:03.068Z,22.2
2022-09-12T09:30:09.818Z,22.3
2022-09-12T09:45:05.224Z,22.6
2022-09-12T10:00:06.849Z,22.7
2022-09-12T10:15:02.567Z,22.8
2022-09-12T10:30:05.546Z,22.9
2022-09-12T10:45:03.837Z,23.2
2022-09-12T11:00:09.469Z,23.3
2022-09-12T11:15:02.901Z,23.6
2022-09-12T11:30:06.641Z,23.8
2022-09-12T11:45:05.876Z,24.1
2022-09-12T12:00:11.588Z,24.2
2022-09-12T12:15:03.259Z,24.2
2022-09-12T12:30:08.387Z,24.2
2022-09-12T12:45:02.962Z,24.2
2022-09-12T13:00:07.666Z,24.3
2022-09-12T13:15:04.470Z,24.3
2022-09-12T13:30:08.623Z,24.3
2022-09-12T13:45:03.188Z,24.3
2022-09-12T14:00:11.143Z,24.3
2022-09-12T14:15:02.969Z,24.3
2022-09-12T14:30:04.648Z,24.2
2022-09-12T14:45:02.497Z,24.2
2022-09-12T15:00:10.922Z,24.2
2022-09-12T15:15:02.202Z,24.1
2022-09-12T15:30:07.008Z,24.0
2022-09-12T15:45:03.035Z,24
2022-09-12T16:00:07.641Z,23.9
2022-09-12T16:15:02.693Z,23.9
2022-09-12T16:30:06.851Z,23.8
2022-09-12T16:45:04.567Z,23.8
2022-09-12T17:00:08.930Z,23.8
2022-09-12T17:15:04.046Z,23.7
2022-09-12T17:30:07.133Z,23.7
2022-09-12T17:45:04.280Z,23.6
2022-09-12T18:00:08.936Z,23.6
2022-09-12T18:15:02.168Z,23.4
2022-09-12T18:30:20.909Z,23.4
2022-09-12T18:45:03.050Z,23.2
2022-09-12T19:00:11.855Z,23.1
2022-09-12T19:15:04.411Z,23.0
2022-09-12T19:30:07.536Z,22.9
2022-09-12T19:45:04.212Z,22.8
2022-09-12T20:00:08.411Z,22.7
2022-09-12T20:15:03.093Z,22.7
2022-09-12T20:30:07.047Z,22.6
2022-09-12T20:45:04.825Z,22.5
2022-09-12T21:00:06.134Z,22.4
2022-09-12T21:15:03.597Z,22.3
2022-09-12T21:30:07.914Z,22.3
2022-09-12T21:45:03.667Z,22.2
2022-09-12T22:00:06.474Z,22.1
2022-09-12T22:15:17.699Z,22.1
2022-09-12T22:30:04.449Z,22.0
2022-09-12T22:45:01.923Z,22
2022-09-12T23:00:05.107Z,22
2022-09-12T23:15:02.292Z,21.9
2022-09-12T23:30:05.415Z,21.9
2022-09-12T23:45:02.705Z,21.9
